KROW/ROW METAR and TAF weather

Enter ICAO airport designator
Station Type Date Time Source
KROW METAR 2019/06/26 15:51 UTC NOAA

KROW 261551Z 17009KT 10SM CLR 28/16 A3009 RMK AO2 SLP118 T02830161


Station Type Date Time Source
KROW Decoded METAR 2019/06/26 15:51 UTC NOAA

ROSWELL INDUSTRIAL AIR CENTR, NM, United States (KROW) 33-18N 104-32W 1112M
Jun 26, 2019 - 11:51 AM EDT / 2019.06.26 1551 UTC
Wind: from the S (170 degrees) at 10 MPH (9 KT):0
Visibility: 10 mile(s):0
Sky conditions: clear
Temperature: 82.9 F (28.3 C)
Dew Point: 61.0 F (16.1 C)
Relative Humidity: 47%
Pressure (altimeter): 30.09 in. Hg (1018 hPa)
ob: KROW 261551Z 17009KT 10SM CLR 28/16 A3009 RMK AO2 SLP118 T02830161
cycle: 16

Station Type Date Time Source
KROW TAF 2019/06/26 12:24 UTC NOAA

TAF KROW 261123Z 2612/2712 17010KT P6SM SCT020
FM261600 16015G22KT P6SM SCT100
FM270000 18015G22KT P6SM VCSH BKN100
FM270600 17009KT P6SM BKN250

Example: see airport list